sensor_id;sensor_type;location;lat;lon;timestamp;P1;durP1;ratioP1;P2;durP2;ratioP2
77466;SDS011;66564;42.482;25.548;2023-03-13T00:03:56;3.80;;;3.08;;
77466;SDS011;66564;42.482;25.548;2023-03-13T00:06:22;6.53;;;3.03;;
77466;SDS011;66564;42.482;25.548;2023-03-13T00:08:50;3.65;;;2.70;;
77466;SDS011;66564;42.482;25.548;2023-03-13T00:11:16;3.83;;;2.42;;
77466;SDS011;66564;42.482;25.548;2023-03-13T00:13:42;5.10;;;2.28;;
77466;SDS011;66564;42.482;25.548;2023-03-13T00:16:12;3.92;;;2.70;;
77466;SDS011;66564;42.482;25.548;2023-03-13T00:18:43;4.38;;;3.13;;
77466;SDS011;66564;42.482;25.548;2023-03-13T00:21:10;5.32;;;2.90;;
77466;SDS011;66564;42.482;25.548;2023-03-13T00:23:37;2.88;;;2.17;;
77466;SDS011;66564;42.482;25.548;2023-03-13T00:26:07;2.92;;;2.22;;
77466;SDS011;66564;42.482;25.548;2023-03-13T00:28:34;4.03;;;2.55;;
77466;SDS011;66564;42.482;25.548;2023-03-13T00:31:05;6.85;;;2.80;;
77466;SDS011;66564;42.482;25.548;2023-03-13T00:33:32;4.07;;;2.38;;
77466;SDS011;66564;42.482;25.548;2023-03-13T00:38:33;4.43;;;2.80;;
77466;SDS011;66564;42.482;25.548;2023-03-13T00:41:03;3.83;;;2.60;;
77466;SDS011;66564;42.482;25.548;2023-03-13T00:43:30;3.83;;;2.70;;
77466;SDS011;66564;42.482;25.548;2023-03-13T00:45:56;3.33;;;2.50;;
77466;SDS011;66564;42.482;25.548;2023-03-13T00:48:22;3.13;;;2.67;;
77466;SDS011;66564;42.482;25.548;2023-03-13T00:50:48;4.18;;;2.78;;
77466;SDS011;66564;42.482;25.548;2023-03-13T00:53:14;3.88;;;2.72;;
77466;SDS011;66564;42.482;25.548;2023-03-13T00:55:49;4.90;;;2.92;;
77466;SDS011;66564;42.482;25.548;2023-03-13T00:58:18;4.32;;;3.28;;
77466;SDS011;66564;42.482;25.548;2023-03-13T01:00:43;4.93;;;2.95;;
77466;SDS011;66564;42.482;25.548;2023-03-13T01:03:09;4.80;;;3.47;;
77466;SDS011;66564;42.482;25.548;2023-03-13T01:05:35;4.03;;;2.90;;
77466;SDS011;66564;42.482;25.548;2023-03-13T01:08:00;4.68;;;3.33;;
77466;SDS011;66564;42.482;25.548;2023-03-13T01:10:26;4.53;;;3.17;;
77466;SDS011;66564;42.482;25.548;2023-03-13T01:12:51;5.75;;;3.60;;
77466;SDS011;66564;42.482;25.548;2023-03-13T01:15:16;8.00;;;3.03;;
77466;SDS011;66564;42.482;25.548;2023-03-13T01:17:43;5.78;;;3.70;;
77466;SDS011;66564;42.482;25.548;2023-03-13T01:20:10;4.10;;;3.30;;
77466;SDS011;66564;42.482;25.548;2023-03-13T01:22:36;5.35;;;3.42;;
77466;SDS011;66564;42.482;25.548;2023-03-13T01:25:01;3.28;;;2.50;;
77466;SDS011;66564;42.482;25.548;2023-03-13T01:27:27;4.57;;;3.10;;
77466;SDS011;66564;42.482;25.548;2023-03-13T01:29:53;4.72;;;3.10;;
77466;SDS011;66564;42.482;25.548;2023-03-13T01:32:19;4.78;;;3.30;;
77466;SDS011;66564;42.482;25.548;2023-03-13T01:34:44;4.30;;;2.90;;
77466;SDS011;66564;42.482;25.548;2023-03-13T01:37:10;4.07;;;3.15;;
77466;SDS011;66564;42.482;25.548;2023-03-13T01:39:35;4.68;;;3.30;;
77466;SDS011;66564;42.482;25.548;2023-03-13T01:42:02;4.40;;;3.20;;
77466;SDS011;66564;42.482;25.548;2023-03-13T01:44:28;4.28;;;3.53;;
77466;SDS011;66564;42.482;25.548;2023-03-13T01:47:12;5.35;;;3.50;;
77466;SDS011;66564;42.482;25.548;2023-03-13T01:49:38;4.40;;;3.15;;
77466;SDS011;66564;42.482;25.548;2023-03-13T01:52:07;4.93;;;3.10;;
77466;SDS011;66564;42.482;25.548;2023-03-13T01:57:16;4.22;;;3.08;;
77466;SDS011;66564;42.482;25.548;2023-03-13T01:59:50;4.05;;;3.00;;
77466;SDS011;66564;42.482;25.548;2023-03-13T02:02:20;4.40;;;3.05;;
77466;SDS011;66564;42.482;25.548;2023-03-13T02:04:49;4.88;;;3.20;;
77466;SDS011;66564;42.482;25.548;2023-03-13T02:07:24;4.15;;;3.00;;
77466;SDS011;66564;42.482;25.548;2023-03-13T02:09:55;4.72;;;3.58;;
77466;SDS011;66564;42.482;25.548;2023-03-13T02:12:23;6.65;;;3.42;;
77466;SDS011;66564;42.482;25.548;2023-03-13T02:14:54;6.65;;;3.58;;
77466;SDS011;66564;42.482;25.548;2023-03-13T02:17:21;5.53;;;3.53;;
77466;SDS011;66564;42.482;25.548;2023-03-13T02:19:48;4.25;;;3.15;;
77466;SDS011;66564;42.482;25.548;2023-03-13T02:27:50;3.95;;;3.05;;
77466;SDS011;66564;42.482;25.548;2023-03-13T02:32:44;5.03;;;3.63;;
77466;SDS011;66564;42.482;25.548;2023-03-13T02:35:12;4.43;;;3.58;;
77466;SDS011;66564;42.482;25.548;2023-03-13T02:37:41;4.80;;;3.72;;
77466;SDS011;66564;42.482;25.548;2023-03-13T02:40:08;4.28;;;3.10;;
77466;SDS011;66564;42.482;25.548;2023-03-13T02:42:40;4.40;;;3.15;;
77466;SDS011;66564;42.482;25.548;2023-03-13T02:45:07;4.43;;;3.25;;
77466;SDS011;66564;42.482;25.548;2023-03-13T02:47:34;6.90;;;3.53;;
77466;SDS011;66564;42.482;25.548;2023-03-13T02:49:59;4.07;;;3.30;;
77466;SDS011;66564;42.482;25.548;2023-03-13T02:52:27;4.90;;;3.10;;
77466;SDS011;66564;42.482;25.548;2023-03-13T02:54:59;4.53;;;3.15;;
77466;SDS011;66564;42.482;25.548;2023-03-13T02:57:28;4.47;;;3.20;;
77466;SDS011;66564;42.482;25.548;2023-03-13T02:59:55;6.10;;;3.38;;
77466;SDS011;66564;42.482;25.548;2023-03-13T03:02:21;5.00;;;3.22;;
77466;SDS011;66564;42.482;25.548;2023-03-13T03:04:47;5.05;;;3.42;;
77466;SDS011;66564;42.482;25.548;2023-03-13T03:07:12;4.68;;;3.03;;
77466;SDS011;66564;42.482;25.548;2023-03-13T03:09:38;4.40;;;3.42;;
77466;SDS011;66564;42.482;25.548;2023-03-13T03:12:03;3.70;;;3.28;;
77466;SDS011;66564;42.482;25.548;2023-03-13T03:14:29;4.93;;;3.17;;
77466;SDS011;66564;42.482;25.548;2023-03-13T03:16:55;5.53;;;3.50;;
77466;SDS011;66564;42.482;25.548;2023-03-13T03:19:20;5.95;;;3.38;;
77466;SDS011;66564;42.482;25.548;2023-03-13T03:21:46;5.05;;;3.33;;
77466;SDS011;66564;42.482;25.548;2023-03-13T03:24:13;3.72;;;2.95;;
77466;SDS011;66564;42.482;25.548;2023-03-13T03:26:39;5.65;;;3.30;;
77466;SDS011;66564;42.482;25.548;2023-03-13T03:29:05;3.95;;;2.90;;
77466;SDS011;66564;42.482;25.548;2023-03-13T03:31:32;5.30;;;3.58;;
77466;SDS011;66564;42.482;25.548;2023-03-13T03:33:58;6.07;;;3.03;;
77466;SDS011;66564;42.482;25.548;2023-03-13T03:36:24;5.78;;;3.50;;
77466;SDS011;66564;42.482;25.548;2023-03-13T03:38:50;3.90;;;3.15;;
77466;SDS011;66564;42.482;25.548;2023-03-13T03:41:16;4.75;;;3.53;;
77466;SDS011;66564;42.482;25.548;2023-03-13T03:43:43;5.15;;;3.50;;
77466;SDS011;66564;42.482;25.548;2023-03-13T03:46:08;4.85;;;3.63;;
77466;SDS011;66564;42.482;25.548;2023-03-13T03:48:34;4.75;;;3.58;;
77466;SDS011;66564;42.482;25.548;2023-03-13T03:51:00;5.40;;;3.03;;
77466;SDS011;66564;42.482;25.548;2023-03-13T03:53:26;4.97;;;3.88;;
77466;SDS011;66564;42.482;25.548;2023-03-13T03:55:52;3.25;;;2.80;;
77466;SDS011;66564;42.482;25.548;2023-03-13T03:58:17;5.25;;;3.30;;
77466;SDS011;66564;42.482;25.548;2023-03-13T04:00:43;5.07;;;3.25;;
77466;SDS011;66564;42.482;25.548;2023-03-13T04:03:10;6.88;;;3.50;;
77466;SDS011;66564;42.482;25.548;2023-03-13T04:05:36;5.45;;;3.47;;
77466;SDS011;66564;42.482;25.548;2023-03-13T04:08:01;4.60;;;3.63;;
77466;SDS011;66564;42.482;25.548;2023-03-13T04:10:27;4.18;;;3.17;;
77466;SDS011;66564;42.482;25.548;2023-03-13T04:12:52;6.00;;;3.70;;
77466;SDS011;66564;42.482;25.548;2023-03-13T04:15:18;5.82;;;3.75;;
77466;SDS011;66564;42.482;25.548;2023-03-13T04:17:43;7.53;;;3.42;;
77466;SDS011;66564;42.482;25.548;2023-03-13T04:20:09;4.97;;;3.50;;
77466;SDS011;66564;42.482;25.548;2023-03-13T04:22:37;5.57;;;3.60;;
77466;SDS011;66564;42.482;25.548;2023-03-13T04:25:03;5.95;;;3.70;;
77466;SDS011;66564;42.482;25.548;2023-03-13T04:27:29;6.35;;;3.72;;
77466;SDS011;66564;42.482;25.548;2023-03-13T04:29:54;4.80;;;3.45;;
77466;SDS011;66564;42.482;25.548;2023-03-13T04:32:20;6.22;;;3.92;;
77466;SDS011;66564;42.482;25.548;2023-03-13T04:34:45;4.93;;;3.53;;
77466;SDS011;66564;42.482;25.548;2023-03-13T04:37:11;5.40;;;3.72;;
77466;SDS011;66564;42.482;25.548;2023-03-13T04:39:36;6.28;;;3.47;;
77466;SDS011;66564;42.482;25.548;2023-03-13T04:42:02;5.60;;;3.95;;
77466;SDS011;66564;42.482;25.548;2023-03-13T04:44:27;5.07;;;3.50;;
77466;SDS011;66564;42.482;25.548;2023-03-13T04:46:53;5.10;;;3.63;;
77466;SDS011;66564;42.482;25.548;2023-03-13T04:49:18;4.13;;;3.35;;
77466;SDS011;66564;42.482;25.548;2023-03-13T04:51:44;5.60;;;4.18;;
77466;SDS011;66564;42.482;25.548;2023-03-13T04:54:10;5.05;;;3.58;;
77466;SDS011;66564;42.482;25.548;2023-03-13T04:56:36;6.00;;;3.60;;
77466;SDS011;66564;42.482;25.548;2023-03-13T04:59:02;6.00;;;4.05;;
77466;SDS011;66564;42.482;25.548;2023-03-13T05:01:27;5.10;;;3.70;;
77466;SDS011;66564;42.482;25.548;2023-03-13T05:03:53;5.03;;;3.58;;
77466;SDS011;66564;42.482;25.548;2023-03-13T05:06:18;5.25;;;3.70;;
77466;SDS011;66564;42.482;25.548;2023-03-13T05:08:44;6.15;;;3.85;;
77466;SDS011;66564;42.482;25.548;2023-03-13T05:11:09;7.03;;;4.38;;
77466;SDS011;66564;42.482;25.548;2023-03-13T05:13:35;5.13;;;3.90;;
77466;SDS011;66564;42.482;25.548;2023-03-13T05:16:01;11.05;;;5.90;;
77466;SDS011;66564;42.482;25.548;2023-03-13T05:18:27;9.38;;;5.75;;
77466;SDS011;66564;42.482;25.548;2023-03-13T05:20:52;5.55;;;3.75;;
77466;SDS011;66564;42.482;25.548;2023-03-13T05:23:18;6.13;;;3.72;;
77466;SDS011;66564;42.482;25.548;2023-03-13T05:25:43;9.40;;;4.60;;
77466;SDS011;66564;42.482;25.548;2023-03-13T05:28:09;8.52;;;5.68;;
77466;SDS011;66564;42.482;25.548;2023-03-13T05:30:34;9.00;;;5.53;;
77466;SDS011;66564;42.482;25.548;2023-03-13T05:33:00;10.60;;;4.97;;
77466;SDS011;66564;42.482;25.548;2023-03-13T05:35:25;5.15;;;4.07;;
77466;SDS011;66564;42.482;25.548;2023-03-13T05:37:51;7.60;;;5.22;;
77466;SDS011;66564;42.482;25.548;2023-03-13T05:40:16;5.57;;;4.05;;
77466;SDS011;66564;42.482;25.548;2023-03-13T05:42:43;6.88;;;4.53;;
77466;SDS011;66564;42.482;25.548;2023-03-13T05:45:09;5.85;;;4.82;;
77466;SDS011;66564;42.482;25.548;2023-03-13T05:47:35;6.80;;;4.63;;
77466;SDS011;66564;42.482;25.548;2023-03-13T05:50:02;8.93;;;4.40;;
77466;SDS011;66564;42.482;25.548;2023-03-13T05:52:29;4.65;;;3.70;;
77466;SDS011;66564;42.482;25.548;2023-03-13T05:54:56;10.00;;;4.20;;
77466;SDS011;66564;42.482;25.548;2023-03-13T05:57:22;10.10;;;5.78;;
77466;SDS011;66564;42.482;25.548;2023-03-13T05:59:47;9.23;;;5.28;;
77466;SDS011;66564;42.482;25.548;2023-03-13T06:02:13;6.57;;;4.85;;
77466;SDS011;66564;42.482;25.548;2023-03-13T06:04:38;8.95;;;4.95;;
77466;SDS011;66564;42.482;25.548;2023-03-13T06:07:04;10.60;;;7.00;;
77466;SDS011;66564;42.482;25.548;2023-03-13T06:09:30;9.95;;;6.22;;
77466;SDS011;66564;42.482;25.548;2023-03-13T06:11:55;10.68;;;6.32;;
77466;SDS011;66564;42.482;25.548;2023-03-13T06:14:20;9.43;;;4.70;;
77466;SDS011;66564;42.482;25.548;2023-03-13T06:16:46;9.88;;;6.22;;
77466;SDS011;66564;42.482;25.548;2023-03-13T06:19:11;17.20;;;8.73;;
77466;SDS011;66564;42.482;25.548;2023-03-13T06:21:37;12.25;;;7.28;;
77466;SDS011;66564;42.482;25.548;2023-03-13T06:24:03;8.35;;;4.43;;
77466;SDS011;66564;42.482;25.548;2023-03-13T06:26:29;8.93;;;5.18;;
77466;SDS011;66564;42.482;25.548;2023-03-13T06:28:55;6.35;;;4.70;;
77466;SDS011;66564;42.482;25.548;2023-03-13T06:31:20;5.90;;;4.35;;
77466;SDS011;66564;42.482;25.548;2023-03-13T06:33:46;8.23;;;6.10;;
77466;SDS011;66564;42.482;25.548;2023-03-13T06:36:11;7.38;;;4.75;;
77466;SDS011;66564;42.482;25.548;2023-03-13T06:38:37;5.78;;;4.30;;
77466;SDS011;66564;42.482;25.548;2023-03-13T06:41:02;5.38;;;4.13;;
77466;SDS011;66564;42.482;25.548;2023-03-13T06:43:28;5.05;;;4.00;;
77466;SDS011;66564;42.482;25.548;2023-03-13T06:45:54;6.78;;;4.57;;
77466;SDS011;66564;42.482;25.548;2023-03-13T06:48:19;6.22;;;4.70;;
77466;SDS011;66564;42.482;25.548;2023-03-13T06:50:47;8.27;;;4.53;;
77466;SDS011;66564;42.482;25.548;2023-03-13T06:53:14;8.75;;;4.18;;
77466;SDS011;66564;42.482;25.548;2023-03-13T06:55:41;6.18;;;3.83;;
77466;SDS011;66564;42.482;25.548;2023-03-13T06:58:07;5.15;;;3.83;;
77466;SDS011;66564;42.482;25.548;2023-03-13T07:00:32;6.75;;;4.07;;
77466;SDS011;66564;42.482;25.548;2023-03-13T07:02:58;5.53;;;3.90;;
77466;SDS011;66564;42.482;25.548;2023-03-13T07:05:24;4.25;;;3.40;;
77466;SDS011;66564;42.482;25.548;2023-03-13T07:07:49;4.93;;;3.55;;
77466;SDS011;66564;42.482;25.548;2023-03-13T07:10:15;3.97;;;3.25;;
77466;SDS011;66564;42.482;25.548;2023-03-13T07:12:41;4.90;;;3.53;;
77466;SDS011;66564;42.482;25.548;2023-03-13T07:15:06;4.45;;;3.50;;
77466;SDS011;66564;42.482;25.548;2023-03-13T07:17:32;4.50;;;3.67;;
77466;SDS011;66564;42.482;25.548;2023-03-13T07:19:57;4.60;;;3.30;;
77466;SDS011;66564;42.482;25.548;2023-03-13T07:22:23;5.60;;;3.40;;
77466;SDS011;66564;42.482;25.548;2023-03-13T07:24:48;4.13;;;3.55;;
77466;SDS011;66564;42.482;25.548;2023-03-13T07:27:14;3.95;;;3.20;;
77466;SDS011;66564;42.482;25.548;2023-03-13T07:29:41;8.80;;;3.50;;
77466;SDS011;66564;42.482;25.548;2023-03-13T07:32:07;3.90;;;3.40;;
77466;SDS011;66564;42.482;25.548;2023-03-13T07:34:32;4.30;;;3.50;;
77466;SDS011;66564;42.482;25.548;2023-03-13T07:37:01;3.97;;;3.22;;
77466;SDS011;66564;42.482;25.548;2023-03-13T07:39:27;3.85;;;2.83;;
77466;SDS011;66564;42.482;25.548;2023-03-13T07:41:52;11.02;;;2.97;;
77466;SDS011;66564;42.482;25.548;2023-03-13T07:44:18;4.68;;;3.40;;
77466;SDS011;66564;42.482;25.548;2023-03-13T07:46:43;3.67;;;3.20;;
77466;SDS011;66564;42.482;25.548;2023-03-13T07:49:10;4.70;;;3.35;;
77466;SDS011;66564;42.482;25.548;2023-03-13T07:51:35;3.53;;;2.70;;
77466;SDS011;66564;42.482;25.548;2023-03-13T07:54:01;3.63;;;2.63;;
77466;SDS011;66564;42.482;25.548;2023-03-13T07:56:26;3.50;;;2.70;;
77466;SDS011;66564;42.482;25.548;2023-03-13T07:58:52;5.03;;;3.08;;
77466;SDS011;66564;42.482;25.548;2023-03-13T08:01:18;4.03;;;2.65;;
77466;SDS011;66564;42.482;25.548;2023-03-13T08:03:46;6.88;;;2.80;;
77466;SDS011;66564;42.482;25.548;2023-03-13T08:06:15;3.35;;;2.83;;
77466;SDS011;66564;42.482;25.548;2023-03-13T08:08:45;5.72;;;2.90;;
77466;SDS011;66564;42.482;25.548;2023-03-13T08:11:15;3.42;;;2.70;;
77466;SDS011;66564;42.482;25.548;2023-03-13T08:13:45;4.13;;;2.72;;
77466;SDS011;66564;42.482;25.548;2023-03-13T08:16:13;3.90;;;3.08;;
77466;SDS011;66564;42.482;25.548;2023-03-13T08:18:41;5.15;;;2.90;;
77466;SDS011;66564;42.482;25.548;2023-03-13T08:21:12;4.88;;;3.33;;
77466;SDS011;66564;42.482;25.548;2023-03-13T08:23:39;2.97;;;2.45;;
77466;SDS011;66564;42.482;25.548;2023-03-13T08:26:27;5.53;;;3.30;;
77466;SDS011;66564;42.482;25.548;2023-03-13T08:28:53;4.50;;;3.00;;
77466;SDS011;66564;42.482;25.548;2023-03-13T08:31:23;4.15;;;3.10;;
77466;SDS011;66564;42.482;25.548;2023-03-13T08:33:50;4.05;;;2.80;;
77466;SDS011;66564;42.482;25.548;2023-03-13T08:38:50;3.92;;;3.33;;
77466;SDS011;66564;42.482;25.548;2023-03-13T08:41:18;4.07;;;3.22;;
77466;SDS011;66564;42.482;25.548;2023-03-13T08:43:45;3.67;;;2.97;;
77466;SDS011;66564;42.482;25.548;2023-03-13T08:46:11;4.05;;;3.35;;
77466;SDS011;66564;42.482;25.548;2023-03-13T08:48:37;4.10;;;3.00;;
77466;SDS011;66564;42.482;25.548;2023-03-13T08:51:04;4.05;;;3.20;;
77466;SDS011;66564;42.482;25.548;2023-03-13T08:53:37;4.57;;;3.10;;
77466;SDS011;66564;42.482;25.548;2023-03-13T08:56:04;5.03;;;3.33;;
77466;SDS011;66564;42.482;25.548;2023-03-13T08:58:34;5.45;;;3.65;;
77466;SDS011;66564;42.482;25.548;2023-03-13T09:01:03;6.07;;;3.50;;
77466;SDS011;66564;42.482;25.548;2023-03-13T09:03:31;4.95;;;3.05;;
77466;SDS011;66564;42.482;25.548;2023-03-13T09:05:57;4.47;;;3.42;;
77466;SDS011;66564;42.482;25.548;2023-03-13T09:08:24;4.28;;;3.33;;
77466;SDS011;66564;42.482;25.548;2023-03-13T09:10:56;4.13;;;3.13;;
77466;SDS011;66564;42.482;25.548;2023-03-13T09:13:26;3.63;;;2.90;;
77466;SDS011;66564;42.482;25.548;2023-03-13T09:15:54;3.92;;;2.90;;
77466;SDS011;66564;42.482;25.548;2023-03-13T09:18:19;7.60;;;3.25;;
77466;SDS011;66564;42.482;25.548;2023-03-13T09:20:45;4.90;;;2.97;;
77466;SDS011;66564;42.482;25.548;2023-03-13T09:23:10;4.50;;;2.90;;
77466;SDS011;66564;42.482;25.548;2023-03-13T09:25:37;4.07;;;3.55;;
77466;SDS011;66564;42.482;25.548;2023-03-13T09:28:03;5.22;;;3.22;;
77466;SDS011;66564;42.482;25.548;2023-03-13T09:30:28;5.03;;;3.30;;
77466;SDS011;66564;42.482;25.548;2023-03-13T09:32:54;6.10;;;3.22;;
77466;SDS011;66564;42.482;25.548;2023-03-13T09:35:20;3.80;;;2.85;;
77466;SDS011;66564;42.482;25.548;2023-03-13T09:37:45;3.65;;;2.80;;
77466;SDS011;66564;42.482;25.548;2023-03-13T09:40:14;4.22;;;3.00;;
77466;SDS011;66564;42.482;25.548;2023-03-13T09:42:44;5.30;;;2.53;;
77466;SDS011;66564;42.482;25.548;2023-03-13T09:45:17;3.72;;;3.13;;
77466;SDS011;66564;42.482;25.548;2023-03-13T09:48:00;3.60;;;2.40;;
77466;SDS011;66564;42.482;25.548;2023-03-13T09:50:30;6.40;;;2.88;;
77466;SDS011;66564;42.482;25.548;2023-03-13T09:53:11;3.45;;;2.80;;
77466;SDS011;66564;42.482;25.548;2023-03-13T09:55:40;3.58;;;2.67;;
77466;SDS011;66564;42.482;25.548;2023-03-13T09:58:18;3.40;;;2.70;;
77466;SDS011;66564;42.482;25.548;2023-03-13T10:00:48;3.53;;;2.63;;
77466;SDS011;66564;42.482;25.548;2023-03-13T10:04:01;4.32;;;3.05;;
77466;SDS011;66564;42.482;25.548;2023-03-13T10:06:19;5.97;;;3.50;;
77466;SDS011;66564;42.482;25.548;2023-03-13T10:08:45;5.85;;;3.65;;
77466;SDS011;66564;42.482;25.548;2023-03-13T10:11:24;4.90;;;3.50;;
77466;SDS011;66564;42.482;25.548;2023-03-13T10:16:55;3.05;;;2.72;;
77466;SDS011;66564;42.482;25.548;2023-03-13T10:22:02;4.68;;;3.05;;
77466;SDS011;66564;42.482;25.548;2023-03-13T10:24:48;3.67;;;3.22;;
77466;SDS011;66564;42.482;25.548;2023-03-13T10:27:30;3.63;;;2.88;;
77466;SDS011;66564;42.482;25.548;2023-03-13T10:29:56;4.30;;;2.90;;
77466;SDS011;66564;42.482;25.548;2023-03-13T10:32:23;4.00;;;2.70;;
77466;SDS011;66564;42.482;25.548;2023-03-13T10:37:14;4.45;;;3.17;;
77466;SDS011;66564;42.482;25.548;2023-03-13T10:39:43;5.10;;;3.80;;
77466;SDS011;66564;42.482;25.548;2023-03-13T10:43:12;3.83;;;3.05;;
77466;SDS011;66564;42.482;25.548;2023-03-13T10:45:12;5.18;;;3.58;;
77466;SDS011;66564;42.482;25.548;2023-03-13T10:47:40;4.82;;;3.75;;
77466;SDS011;66564;42.482;25.548;2023-03-13T10:50:05;4.53;;;2.63;;
77466;SDS011;66564;42.482;25.548;2023-03-13T10:52:33;4.93;;;3.63;;
77466;SDS011;66564;42.482;25.548;2023-03-13T10:55:06;4.35;;;3.20;;
77466;SDS011;66564;42.482;25.548;2023-03-13T10:57:37;3.80;;;2.53;;
77466;SDS011;66564;42.482;25.548;2023-03-13T11:00:27;5.13;;;2.53;;
77466;SDS011;66564;42.482;25.548;2023-03-13T11:02:56;6.85;;;4.05;;
77466;SDS011;66564;42.482;25.548;2023-03-13T11:07:48;5.25;;;3.22;;
77466;SDS011;66564;42.482;25.548;2023-03-13T11:10:19;4.30;;;2.75;;
77466;SDS011;66564;42.482;25.548;2023-03-13T11:12:50;3.88;;;2.67;;
77466;SDS011;66564;42.482;25.548;2023-03-13T11:18:23;7.40;;;2.97;;
77466;SDS011;66564;42.482;25.548;2023-03-13T11:20:53;4.72;;;2.55;;
77466;SDS011;66564;42.482;25.548;2023-03-13T11:23:26;4.97;;;2.90;;
77466;SDS011;66564;42.482;25.548;2023-03-13T11:26:15;3.40;;;2.58;;
77466;SDS011;66564;42.482;25.548;2023-03-13T11:29:17;3.75;;;2.45;;
77466;SDS011;66564;42.482;25.548;2023-03-13T11:31:56;4.45;;;2.88;;
77466;SDS011;66564;42.482;25.548;2023-03-13T11:44:51;7.78;;;2.92;;
77466;SDS011;66564;42.482;25.548;2023-03-13T11:48:03;4.65;;;3.00;;
77466;SDS011;66564;42.482;25.548;2023-03-13T11:51:14;5.10;;;2.47;;
77466;SDS011;66564;42.482;25.548;2023-03-13T11:58:04;4.07;;;3.13;;
77466;SDS011;66564;42.482;25.548;2023-03-13T12:05:33;3.47;;;2.72;;
77466;SDS011;66564;42.482;25.548;2023-03-13T12:08:15;3.53;;;2.78;;
77466;SDS011;66564;42.482;25.548;2023-03-13T12:13:37;4.45;;;2.97;;
77466;SDS011;66564;42.482;25.548;2023-03-13T12:16:12;5.43;;;3.10;;
77466;SDS011;66564;42.482;25.548;2023-03-13T12:18:41;3.30;;;2.45;;
77466;SDS011;66564;42.482;25.548;2023-03-13T12:24:03;3.17;;;2.40;;
77466;SDS011;66564;42.482;25.548;2023-03-13T12:26:33;3.53;;;2.53;;
77466;SDS011;66564;42.482;25.548;2023-03-13T12:34:51;4.30;;;2.50;;
77466;SDS011;66564;42.482;25.548;2023-03-13T12:37:41;3.38;;;2.72;;
77466;SDS011;66564;42.482;25.548;2023-03-13T12:40:15;3.50;;;2.38;;
77466;SDS011;66564;42.482;25.548;2023-03-13T12:45:46;4.10;;;2.60;;
77466;SDS011;66564;42.482;25.548;2023-03-13T12:59:13;3.28;;;2.33;;
77466;SDS011;66564;42.482;25.548;2023-03-13T13:01:43;4.93;;;2.80;;
77466;SDS011;66564;42.482;25.548;2023-03-13T13:04:17;4.93;;;2.92;;
77466;SDS011;66564;42.482;25.548;2023-03-13T13:07:05;6.25;;;2.80;;
77466;SDS011;66564;42.482;25.548;2023-03-13T13:09:57;5.43;;;3.13;;
77466;SDS011;66564;42.482;25.548;2023-03-13T13:12:26;3.65;;;2.83;;
77466;SDS011;66564;42.482;25.548;2023-03-13T13:17:34;4.47;;;2.72;;
77466;SDS011;66564;42.482;25.548;2023-03-13T13:22:55;4.05;;;3.00;;
77466;SDS011;66564;42.482;25.548;2023-03-13T13:25:29;3.83;;;2.85;;
77466;SDS011;66564;42.482;25.548;2023-03-13T13:28:22;3.78;;;2.60;;
77466;SDS011;66564;42.482;25.548;2023-03-13T13:30:51;4.43;;;2.90;;
77466;SDS011;66564;42.482;25.548;2023-03-13T13:35:46;5.90;;;2.28;;
77466;SDS011;66564;42.482;25.548;2023-03-13T13:38:35;4.93;;;2.85;;
77466;SDS011;66564;42.482;25.548;2023-03-13T13:43:36;4.70;;;2.70;;
77466;SDS011;66564;42.482;25.548;2023-03-13T13:53:44;5.22;;;2.88;;
77466;SDS011;66564;42.482;25.548;2023-03-13T13:56:47;3.90;;;3.10;;
77466;SDS011;66564;42.482;25.548;2023-03-13T14:02:34;3.17;;;2.70;;
77466;SDS011;66564;42.482;25.548;2023-03-13T14:04:48;5.43;;;3.05;;
77466;SDS011;66564;42.482;25.548;2023-03-13T14:07:30;4.32;;;2.72;;
77466;SDS011;66564;42.482;25.548;2023-03-13T14:09:58;5.78;;;2.90;;
77466;SDS011;66564;42.482;25.548;2023-03-13T14:15:40;3.88;;;2.95;;
77466;SDS011;66564;42.482;25.548;2023-03-13T14:17:46;4.20;;;2.65;;
77466;SDS011;66564;42.482;25.548;2023-03-13T14:22:58;5.07;;;3.03;;
77466;SDS011;66564;42.482;25.548;2023-03-13T14:25:42;7.93;;;4.35;;
77466;SDS011;66564;42.482;25.548;2023-03-13T14:30:42;4.30;;;2.88;;
77466;SDS011;66564;42.482;25.548;2023-03-13T14:33:09;3.95;;;2.88;;
77466;SDS011;66564;42.482;25.548;2023-03-13T14:35:34;6.25;;;3.78;;
77466;SDS011;66564;42.482;25.548;2023-03-13T14:38:00;6.15;;;2.90;;
77466;SDS011;66564;42.482;25.548;2023-03-13T14:40:28;6.20;;;3.30;;
77466;SDS011;66564;42.482;25.548;2023-03-13T14:42:59;7.22;;;3.78;;
77466;SDS011;66564;42.482;25.548;2023-03-13T14:45:27;6.53;;;3.58;;
77466;SDS011;66564;42.482;25.548;2023-03-13T14:48:18;8.82;;;4.20;;
77466;SDS011;66564;42.482;25.548;2023-03-13T14:50:52;5.07;;;2.92;;
77466;SDS011;66564;42.482;25.548;2023-03-13T14:53:24;4.57;;;2.90;;
77466;SDS011;66564;42.482;25.548;2023-03-13T14:56:08;5.82;;;3.40;;
77466;SDS011;66564;42.482;25.548;2023-03-13T14:58:35;5.10;;;3.30;;
77466;SDS011;66564;42.482;25.548;2023-03-13T15:01:10;4.18;;;3.17;;
77466;SDS011;66564;42.482;25.548;2023-03-13T15:03:42;5.22;;;3.30;;
77466;SDS011;66564;42.482;25.548;2023-03-13T15:08:35;5.25;;;2.97;;
77466;SDS011;66564;42.482;25.548;2023-03-13T15:11:16;8.32;;;3.65;;
77466;SDS011;66564;42.482;25.548;2023-03-13T15:13:54;6.88;;;3.38;;
77466;SDS011;66564;42.482;25.548;2023-03-13T15:16:20;5.65;;;3.67;;
77466;SDS011;66564;42.482;25.548;2023-03-13T15:18:48;5.18;;;3.47;;
77466;SDS011;66564;42.482;25.548;2023-03-13T15:23:41;5.30;;;2.90;;
77466;SDS011;66564;42.482;25.548;2023-03-13T15:26:11;4.93;;;3.70;;
77466;SDS011;66564;42.482;25.548;2023-03-13T15:28:37;11.52;;;4.63;;
77466;SDS011;66564;42.482;25.548;2023-03-13T15:31:05;7.07;;;4.30;;
77466;SDS011;66564;42.482;25.548;2023-03-13T15:33:31;6.30;;;4.05;;
77466;SDS011;66564;42.482;25.548;2023-03-13T15:35:56;9.00;;;3.95;;
77466;SDS011;66564;42.482;25.548;2023-03-13T15:38:23;9.25;;;3.72;;
77466;SDS011;66564;42.482;25.548;2023-03-13T15:40:51;7.88;;;3.92;;
77466;SDS011;66564;42.482;25.548;2023-03-13T15:43:17;8.07;;;4.78;;
77466;SDS011;66564;42.482;25.548;2023-03-13T15:45:44;8.38;;;4.28;;
77466;SDS011;66564;42.482;25.548;2023-03-13T15:50:43;7.95;;;4.13;;
77466;SDS011;66564;42.482;25.548;2023-03-13T15:53:11;6.13;;;3.35;;
77466;SDS011;66564;42.482;25.548;2023-03-13T15:55:45;5.43;;;3.45;;
77466;SDS011;66564;42.482;25.548;2023-03-13T15:58:20;4.70;;;2.95;;
77466;SDS011;66564;42.482;25.548;2023-03-13T16:00:56;5.72;;;3.58;;
77466;SDS011;66564;42.482;25.548;2023-03-13T16:03:23;5.25;;;3.70;;
77466;SDS011;66564;42.482;25.548;2023-03-13T16:05:50;5.90;;;3.53;;
77466;SDS011;66564;42.482;25.548;2023-03-13T16:08:23;6.13;;;4.38;;
77466;SDS011;66564;42.482;25.548;2023-03-13T16:10:50;5.68;;;3.70;;
77466;SDS011;66564;42.482;25.548;2023-03-13T16:13:16;4.57;;;3.45;;
77466;SDS011;66564;42.482;25.548;2023-03-13T16:15:42;5.45;;;3.65;;
77466;SDS011;66564;42.482;25.548;2023-03-13T16:18:09;6.30;;;4.00;;
77466;SDS011;66564;42.482;25.548;2023-03-13T16:20:53;7.18;;;3.40;;
77466;SDS011;66564;42.482;25.548;2023-03-13T16:23:18;4.43;;;3.17;;
77466;SDS011;66564;42.482;25.548;2023-03-13T16:25:44;8.45;;;3.05;;
77466;SDS011;66564;42.482;25.548;2023-03-13T16:28:11;5.47;;;3.35;;
77466;SDS011;66564;42.482;25.548;2023-03-13T16:30:40;5.65;;;3.03;;
77466;SDS011;66564;42.482;25.548;2023-03-13T16:33:07;5.95;;;3.45;;
77466;SDS011;66564;42.482;25.548;2023-03-13T16:35:33;4.47;;;3.17;;
77466;SDS011;66564;42.482;25.548;2023-03-13T16:37:59;3.78;;;2.60;;